Time;durP1;ratioP1;P1;durP2;ratioP2;P2;SDS_P1;SDS_P2;PMS_P1;PMS_P2;Temp;Humidity;BMP_temperature;BMP_pressure;BME280_temperature;BME280_humidity;BME280_pressure;Samples;Min_cycle;Max_cycle;Signal;HPM_P1;HPM_P2
2023/09/08 00:01:48;;;;;;;;;;;20.90;87.00;;;;;;5053190;28;19913;-68
2023/09/08 00:04:14;;;;;;;;;;;20.90;87.00;;;;;;5053228;28;20356;-67
2023/09/08 00:06:40;;;;;;;;;;;20.90;87.00;;;;;;5056308;28;19913;-67
2023/09/08 00:09:06;;;;;;;;;;;20.90;87.00;;;;;;5056580;28;19909;-68
2023/09/08 00:11:31;;;;;;;;;;;20.90;87.00;;;;;;5056604;28;19909;-67
2023/09/08 00:13:57;;;;;;;;;;;20.90;87.00;;;;;;5056570;28;19916;-67
2023/09/08 00:16:22;;;;;;;;;;;20.90;87.00;;;;;;5056501;28;19909;-69
2023/09/08 00:18:48;;;;;;;;;;;20.80;86.90;;;;;;5056285;28;20035;-69
2023/09/08 00:21:13;;;;;;;;;;;20.90;87.00;;;;;;5056642;28;19955;-68
2023/09/08 00:23:39;;;;;;;;;;;20.90;87.00;;;;;;5056580;28;20001;-68
2023/09/08 00:26:04;;;;;;;;;;;20.90;87.00;;;;;;5056324;28;20269;-68
2023/09/08 00:28:30;;;;;;;;;;;20.80;86.90;;;;;;5056853;28;19915;-68
2023/09/08 00:30:55;;;;;;;;;;;20.90;87.00;;;;;;5056299;28;19909;-68
2023/09/08 00:33:22;;;;;;;;;;;20.90;87.00;;;;;;5056454;28;19909;-68
2023/09/08 00:35:50;;;;;;;;;;;20.80;86.90;;;;;;5056428;28;19908;-68
2023/09/08 00:38:16;;;;;;;;;;;20.90;87.00;;;;;;5056175;28;19954;-68
2023/09/08 00:40:41;;;;;;;;;;;20.90;87.00;;;;;;5056289;28;20326;-68
2023/09/08 00:43:07;;;;;;;;;;;20.80;86.90;;;;;;5038116;28;19959;-68
2023/09/08 00:45:36;;;;;;;;;;;20.90;87.00;;;;;;5055863;28;19915;-68
2023/09/08 00:48:01;;;;;;;;;;;20.90;87.00;;;;;;5056520;28;20316;-68
2023/09/08 00:50:27;;;;;;;;;;;20.90;87.00;;;;;;5056129;28;19971;-68
2023/09/08 00:52:52;;;;;;;;;;;20.90;87.00;;;;;;5055875;28;19909;-68
2023/09/08 00:55:18;;;;;;;;;;;20.90;87.00;;;;;;5055952;28;20244;-70
2023/09/08 00:57:43;;;;;;;;;;;20.90;87.00;;;;;;5055918;28;19912;-69
2023/09/08 01:00:09;;;;;;;;;;;20.90;87.00;;;;;;5055977;28;19916;-69
2023/09/08 01:02:34;;;;;;;;;;;20.90;87.00;;;;;;5055518;28;20003;-69
2023/09/08 01:05:00;;;;;;;;;;;20.90;87.00;;;;;;5055533;28;20425;-70
2023/09/08 01:07:27;;;;;;;;;;;20.90;87.00;;;;;;5055817;28;19912;-69
2023/09/08 01:09:53;;;;;;;;;;;20.80;86.90;;;;;;5055406;28;19915;-69
2023/09/08 01:12:18;;;;;;;;;;;20.90;87.00;;;;;;5055456;28;19913;-69
2023/09/08 01:14:44;;;;;;;;;;;20.90;87.00;;;;;;5055382;28;19912;-70
2023/09/08 01:17:09;;;;;;;;;;;20.90;87.00;;;;;;5055077;28;19931;-69
2023/09/08 01:19:36;;;;;;;;;;;20.90;87.00;;;;;;5055886;28;19971;-69
2023/09/08 01:22:07;;;;;;;;;;;20.90;87.00;;;;;;5055293;28;20359;-69
2023/09/08 01:24:51;;;;;;;;;;;20.80;86.90;;;;;;5055208;28;19909;-69
2023/09/08 01:27:18;;;;;;;;;;;20.80;86.90;;;;;;5037707;28;19946;-68
2023/09/08 01:29:44;;;;;;;;;;;20.90;87.00;;;;;;5055156;28;19992;-69
2023/09/08 01:32:10;;;;;;;;;;;20.80;87.00;;;;;;5055430;28;19959;-69
2023/09/08 01:34:39;;;;;;;;;;;20.80;87.00;;;;;;5055317;28;19909;-69
2023/09/08 01:37:06;;;;;;;;;;;20.80;87.00;;;;;;5055244;28;19909;-69
2023/09/08 01:39:31;;;;;;;;;;;20.80;86.90;;;;;;5055215;28;19913;-69
2023/09/08 01:41:57;;;;;;;;;;;20.90;87.00;;;;;;5054904;28;20015;-70
2023/09/08 01:44:22;;;;;;;;;;;20.90;87.00;;;;;;5054746;28;19915;-70
2023/09/08 01:46:48;;;;;;;;;;;20.90;87.00;;;;;;5054886;28;19921;-70
2023/09/08 01:49:13;;;;;;;;;;;20.90;87.00;;;;;;5055044;28;20350;-70
2023/09/08 01:51:38;;;;;;;;;;;20.80;86.90;;;;;;5054599;28;19913;-70
2023/09/08 01:54:04;;;;;;;;;;;20.80;86.90;;;;;;5054868;28;19909;-70
2023/09/08 01:56:29;;;;;;;;;;;20.80;86.90;;;;;;5036981;28;19909;-71
2023/09/08 01:58:55;;;;;;;;;;;20.90;87.00;;;;;;5054599;28;19920;-69
2023/09/08 02:01:20;;;;;;;;;;;20.90;87.00;;;;;;5054859;28;19913;-69
2023/09/08 02:03:46;;;;;;;;;;;20.80;87.00;;;;;;5054665;28;19915;-70
2023/09/08 02:06:11;;;;;;;;;;;20.80;86.90;;;;;;5054686;28;19915;-67
2023/09/08 02:08:37;;;;;;;;;;;20.80;87.00;;;;;;5036830;28;19909;-70
2023/09/08 02:11:02;;;;;;;;;;;20.80;87.00;;;;;;5054652;28;19909;-69
2023/09/08 02:13:28;;;;;;;;;;;20.90;87.00;;;;;;5054671;28;19915;-70
2023/09/08 02:15:53;;;;;;;;;;;20.90;87.00;;;;;;5054331;28;19914;-69
2023/09/08 02:18:19;;;;;;;;;;;20.80;87.50;;;;;;5054157;28;19913;-70
2023/09/08 02:20:44;;;;;;;;;;;20.80;87.00;;;;;;5054827;28;19919;-68
2023/09/08 02:23:10;;;;;;;;;;;20.80;87.00;;;;;;5054501;28;20364;-69
2023/09/08 02:25:35;;;;;;;;;;;20.80;87.00;;;;;;5054419;28;19915;-69
2023/09/08 02:28:01;;;;;;;;;;;20.80;87.00;;;;;;5053907;28;19952;-69
2023/09/08 02:30:26;;;;;;;;;;;20.80;87.00;;;;;;5053817;28;19909;-67
2023/09/08 02:32:52;;;;;;;;;;;20.80;87.00;;;;;;5053955;28;19909;-69
2023/09/08 02:35:17;;;;;;;;;;;20.80;87.00;;;;;;5054259;28;20367;-69
2023/09/08 02:37:43;;;;;;;;;;;20.80;87.50;;;;;;5036370;28;19909;-68
2023/09/08 02:40:09;;;;;;;;;;;20.80;87.00;;;;;;5054144;28;19924;-69
2023/09/08 02:42:35;;;;;;;;;;;20.80;87.00;;;;;;5054043;28;19956;-69
2023/09/08 02:45:00;;;;;;;;;;;20.80;87.00;;;;;;5053934;28;20422;-68
2023/09/08 02:47:26;;;;;;;;;;;20.80;87.00;;;;;;5053853;28;19927;-69
2023/09/08 02:49:51;;;;;;;;;;;20.80;87.00;;;;;;5054081;28;20278;-70
2023/09/08 02:52:19;;;;;;;;;;;20.80;87.00;;;;;;5053697;28;19932;-69
2023/09/08 02:54:45;;;;;;;;;;;20.80;87.00;;;;;;5053953;28;19910;-68
2023/09/08 02:57:10;;;;;;;;;;;20.80;87.00;;;;;;5053912;28;19915;-69
2023/09/08 02:59:35;;;;;;;;;;;20.80;87.00;;;;;;5053830;28;20425;-69
2023/09/08 03:02:01;;;;;;;;;;;20.80;87.00;;;;;;5053621;28;19944;-69
2023/09/08 03:04:26;;;;;;;;;;;20.80;87.00;;;;;;5053565;28;19916;-67
2023/09/08 03:06:52;;;;;;;;;;;20.80;87.00;;;;;;5053551;28;20015;-69
2023/09/08 03:09:17;;;;;;;;;;;20.80;87.00;;;;;;5053535;28;20272;-69
2023/09/08 03:11:43;;;;;;;;;;;20.80;87.00;;;;;;5053516;28;19908;-69
2023/09/08 03:14:08;;;;;;;;;;;20.80;87.00;;;;;;5053734;28;19913;-69
2023/09/08 03:16:34;;;;;;;;;;;20.80;87.00;;;;;;5053794;28;19909;-69
2023/09/08 03:18:59;;;;;;;;;;;20.80;87.00;;;;;;5053703;28;20319;-67
2023/09/08 03:21:25;;;;;;;;;;;20.80;87.00;;;;;;5035709;28;19913;-69
2023/09/08 03:23:50;;;;;;;;;;;20.80;87.00;;;;;;5053645;28;19913;-69
2023/09/08 03:26:15;;;;;;;;;;;20.80;87.10;;;;;;5053246;28;20282;-68
2023/09/08 03:28:41;;;;;;;;;;;20.80;87.00;;;;;;5053334;28;19909;-69
2023/09/08 03:31:07;;;;;;;;;;;20.80;87.00;;;;;;5053270;28;20451;-69
2023/09/08 03:33:32;;;;;;;;;;;20.80;87.00;;;;;;5053463;28;20344;-69
2023/09/08 03:35:58;;;;;;;;;;;20.80;87.00;;;;;;5053403;28;20275;-68
2023/09/08 03:38:23;;;;;;;;;;;20.80;87.00;;;;;;5053455;28;19909;-69
2023/09/08 03:40:49;;;;;;;;;;;20.80;87.00;;;;;;5055389;28;19917;-69
2023/09/08 03:43:14;;;;;;;;;;;20.80;87.00;;;;;;5057478;28;19909;-69
2023/09/08 03:45:41;;;;;;;;;;;20.80;87.00;;;;;;5057412;28;19932;-69
2023/09/08 03:48:06;;;;;;;;;;;20.80;87.00;;;;;;5056985;28;19921;-69
2023/09/08 03:50:32;;;;;;;;;;;20.80;87.00;;;;;;5057081;28;20020;-69
2023/09/08 03:52:57;;;;;;;;;;;20.80;87.00;;;;;;5057621;28;19909;-69
2023/09/08 03:55:23;;;;;;;;;;;20.80;87.00;;;;;;5057141;28;20311;-69
2023/09/08 03:57:48;;;;;;;;;;;20.80;87.00;;;;;;5057408;28;19913;-69
2023/09/08 04:00:21;;;;;;;;;;;20.80;87.00;;;;;;5057085;28;19948;-69
2023/09/08 04:02:47;;;;;;;;;;;20.80;87.00;;;;;;5040372;28;19974;-69
2023/09/08 04:05:13;;;;;;;;;;;20.80;87.00;;;;;;5057035;28;19937;-69
2023/09/08 04:07:38;;;;;;;;;;;20.80;87.00;;;;;;5056531;28;19908;-68
2023/09/08 04:10:04;;;;;;;;;;;20.80;87.00;;;;;;5056899;28;19915;-68
2023/09/08 04:12:29;;;;;;;;;;;20.80;87.00;;;;;;5057098;28;20026;-69
2023/09/08 04:14:55;;;;;;;;;;;20.80;87.00;;;;;;5056863;28;19909;-69
2023/09/08 04:17:20;;;;;;;;;;;20.80;87.00;;;;;;5056755;28;19916;-68
2023/09/08 04:19:46;;;;;;;;;;;20.80;87.00;;;;;;5056627;28;20405;-66
2023/09/08 04:22:11;;;;;;;;;;;20.80;87.00;;;;;;5057007;28;19995;-69
2023/09/08 04:24:37;;;;;;;;;;;20.80;87.00;;;;;;5056550;28;20385;-68
2023/09/08 04:27:03;;;;;;;;;;;20.80;87.00;;;;;;5056819;28;19916;-68
2023/09/08 04:29:28;;;;;;;;;;;20.80;87.00;;;;;;5056549;28;19908;-63
2023/09/08 04:31:54;;;;;;;;;;;20.80;87.00;;;;;;5056237;28;19909;-68
2023/09/08 04:34:19;;;;;;;;;;;20.80;87.00;;;;;;5056405;28;19955;-68
2023/09/08 04:36:45;;;;;;;;;;;20.80;87.00;;;;;;5056100;28;19909;-68
2023/09/08 04:39:11;;;;;;;;;;;20.80;87.00;;;;;;5056618;28;20351;-68
2023/09/08 04:41:37;;;;;;;;;;;20.80;87.00;;;;;;5056282;28;19920;-68
2023/09/08 04:44:02;;;;;;;;;;;20.80;87.50;;;;;;5055980;28;19909;-68
2023/09/08 04:46:28;;;;;;;;;;;20.80;87.00;;;;;;5055987;28;19927;-68
2023/09/08 04:48:54;;;;;;;;;;;20.80;87.00;;;;;;5056236;28;19916;-68
2023/09/08 04:51:19;;;;;;;;;;;20.80;87.00;;;;;;5055157;28;19996;-68
2023/09/08 04:53:47;;;;;;;;;;;20.80;87.00;;;;;;5055158;28;21307;-68
2023/09/08 04:56:13;;;;;;;;;;;20.80;87.00;;;;;;5055857;28;20375;-69
2023/09/08 04:58:38;;;;;;;;;;;20.80;87.00;;;;;;5055513;28;19913;-69
2023/09/08 05:01:05;;;;;;;;;;;20.80;87.00;;;;;;5055637;28;20287;-69
2023/09/08 05:03:31;;;;;;;;;;;20.80;87.00;;;;;;5055598;28;20359;-68
2023/09/08 05:05:56;;;;;;;;;;;20.80;87.00;;;;;;5037630;28;19916;-69
2023/09/08 05:08:22;;;;;;;;;;;20.80;87.00;;;;;;5037906;28;20390;-68
2023/09/08 05:10:47;;;;;;;;;;;20.80;87.10;;;;;;5055752;28;20409;-68
2023/09/08 05:13:12;;;;;;;;;;;20.80;87.00;;;;;;5055744;28;19909;-69
2023/09/08 05:15:39;;;;;;;;;;;20.80;87.00;;;;;;5055723;28;20086;-69
2023/09/08 05:18:05;;;;;;;;;;;20.80;87.00;;;;;;5055260;28;19926;-69
2023/09/08 05:20:30;;;;;;;;;;;20.80;87.00;;;;;;5055484;28;19912;-69
2023/09/08 05:22:56;;;;;;;;;;;20.80;87.00;;;;;;5055581;28;19920;-69
2023/09/08 05:25:21;;;;;;;;;;;20.70;87.00;;;;;;5055338;28;20426;-69
2023/09/08 05:27:47;;;;;;;;;;;20.80;87.10;;;;;;5055575;28;19916;-64
2023/09/08 05:30:12;;;;;;;;;;;20.80;87.10;;;;;;5055379;28;20280;-69
2023/09/08 05:32:38;;;;;;;;;;;20.80;87.10;;;;;;5054966;28;19952;-67
2023/09/08 05:35:03;;;;;;;;;;;20.80;87.10;;;;;;5055005;28;19915;-68
2023/09/08 05:37:29;;;;;;;;;;;20.80;87.10;;;;;;5055281;28;20345;-68
2023/09/08 05:39:54;;;;;;;;;;;20.80;87.10;;;;;;5055118;28;19919;-69
2023/09/08 05:42:20;;;;;;;;;;;20.80;87.10;;;;;;5054746;28;19916;-68
2023/09/08 05:44:47;;;;;;;;;;;20.80;87.10;;;;;;5054801;28;19944;-68
2023/09/08 05:47:13;;;;;;;;;;;20.80;87.10;;;;;;5054822;28;19974;-68
2023/09/08 05:49:38;;;;;;;;;;;20.80;87.10;;;;;;5054898;28;19916;-68
2023/09/08 05:52:04;;;;;;;;;;;20.80;87.10;;;;;;5054423;28;20017;-69
2023/09/08 05:54:30;;;;;;;;;;;20.80;87.20;;;;;;5054667;28;19913;-69
2023/09/08 05:56:55;;;;;;;;;;;20.80;87.20;;;;;;5054643;28;20004;-69
2023/09/08 05:59:21;;;;;;;;;;;20.80;87.20;;;;;;5054202;28;20031;-68
2023/09/08 06:01:46;;;;;;;;;;;20.80;87.20;;;;;;5054676;28;19919;-69
2023/09/08 06:04:12;;;;;;;;;;;20.80;87.20;;;;;;5054083;28;19909;-68
2023/09/08 06:06:38;;;;;;;;;;;20.70;87.20;;;;;;5054349;28;20278;-69
2023/09/08 06:09:05;;;;;;;;;;;20.70;87.20;;;;;;5054512;28;19909;-69
2023/09/08 06:11:31;;;;;;;;;;;20.80;87.30;;;;;;5054414;28;19920;-68
2023/09/08 06:13:59;;;;;;;;;;;20.70;87.30;;;;;;5054583;28;20279;-69
2023/09/08 06:16:25;;;;;;;;;;;20.80;87.30;;;;;;5036530;28;20335;-69
2023/09/08 06:18:50;;;;;;;;;;;20.70;87.30;;;;;;5054286;28;20019;-70
2023/09/08 06:21:16;;;;;;;;;;;20.70;87.30;;;;;;5054290;28;20020;-69
2023/09/08 06:23:41;;;;;;;;;;;20.70;87.30;;;;;;5054050;28;19908;-69
2023/09/08 06:26:06;;;;;;;;;;;20.70;87.30;;;;;;5054090;28;19909;-69
2023/09/08 06:28:32;;;;;;;;;;;20.70;87.30;;;;;;5054135;28;19916;-69
2023/09/08 06:30:57;;;;;;;;;;;20.70;87.30;;;;;;5054397;28;19916;-68
2023/09/08 06:33:23;;;;;;;;;;;20.70;87.40;;;;;;5054236;28;20370;-69
2023/09/08 06:35:49;;;;;;;;;;;20.70;87.30;;;;;;5054195;28;19917;-65
2023/09/08 06:38:14;;;;;;;;;;;20.70;87.30;;;;;;5053628;28;19909;-69
2023/09/08 06:40:39;;;;;;;;;;;20.70;87.30;;;;;;5053686;28;19912;-70
2023/09/08 06:43:05;;;;;;;;;;;20.70;87.30;;;;;;5053783;28;19912;-69
2023/09/08 06:45:30;;;;;;;;;;;20.70;87.40;;;;;;5053823;28;20267;-69
2023/09/08 06:47:56;;;;;;;;;;;20.70;87.40;;;;;;5054014;28;19975;-69
2023/09/08 06:50:22;;;;;;;;;;;20.70;87.40;;;;;;5053773;28;19909;-68
2023/09/08 06:52:50;;;;;;;;;;;20.70;87.40;;;;;;5053781;28;20360;-68
2023/09/08 06:55:16;;;;;;;;;;;20.70;87.40;;;;;;5053313;28;20026;-69
2023/09/08 06:57:42;;;;;;;;;;;20.70;87.40;;;;;;5053637;28;20022;-69
2023/09/08 07:00:08;;;;;;;;;;;20.70;87.40;;;;;;5053385;28;19920;-69
2023/09/08 07:02:33;;;;;;;;;;;20.70;87.40;;;;;;5053423;28;19913;-68
2023/09/08 07:04:59;;;;;;;;;;;20.70;87.50;;;;;;5053379;28;19920;-69
2023/09/08 07:07:25;;;;;;;;;;;20.70;87.50;;;;;;5053614;28;19916;-69
2023/09/08 07:09:50;;;;;;;;;;;20.70;87.50;;;;;;5053791;28;19936;-69
2023/09/08 07:12:15;;;;;;;;;;;20.70;87.50;;;;;;5053481;28;20235;-69
2023/09/08 07:14:41;;;;;;;;;;;20.70;87.50;;;;;;5053003;28;19913;-69
2023/09/08 07:17:06;;;;;;;;;;;20.70;87.50;;;;;;5053457;28;20306;-69
2023/09/08 07:19:32;;;;;;;;;;;20.70;87.50;;;;;;5053631;28;19913;-64
2023/09/08 07:21:57;;;;;;;;;;;20.70;87.50;;;;;;5053342;28;19912;-69
2023/09/08 07:24:24;;;;;;;;;;;20.70;87.50;;;;;;5035397;28;19963;-69
2023/09/08 07:26:50;;;;;;;;;;;20.70;87.50;;;;;;5053535;28;19920;-69
2023/09/08 07:29:16;;;;;;;;;;;20.70;87.50;;;;;;5053239;28;19999;-69
2023/09/08 07:31:41;;;;;;;;;;;20.70;87.50;;;;;;5053444;28;19959;-69
2023/09/08 07:34:07;;;;;;;;;;;20.70;87.50;;;;;;5053392;28;19909;-69
2023/09/08 07:36:32;;;;;;;;;;;20.70;87.60;;;;;;5053186;28;20367;-68
2023/09/08 07:38:58;;;;;;;;;;;20.70;87.60;;;;;;5053345;28;19920;-69
2023/09/08 07:41:23;;;;;;;;;;;20.70;87.60;;;;;;5052959;28;19999;-69
2023/09/08 07:43:50;;;;;;;;;;;20.70;87.60;;;;;;5053117;28;19963;-70
2023/09/08 07:46:16;;;;;;;;;;;20.70;87.60;;;;;;5053108;28;19916;-69
2023/09/08 07:48:41;;;;;;;;;;;20.70;87.60;;;;;;5053226;28;19909;-70
2023/09/08 07:51:07;;;;;;;;;;;20.70;87.70;;;;;;5053085;28;20352;-70
2023/09/08 07:53:32;;;;;;;;;;;20.70;87.60;;;;;;5035264;28;20011;-69
2023/09/08 07:55:58;;;;;;;;;;;20.70;87.70;;;;;;5053091;28;19909;-69
2023/09/08 07:58:24;;;;;;;;;;;20.70;87.70;;;;;;5053270;28;20011;-69
2023/09/08 08:00:49;;;;;;;;;;;20.70;87.70;;;;;;5052726;28;20406;-69
2023/09/08 08:03:15;;;;;;;;;;;20.70;87.70;;;;;;5052665;28;19909;-69
2023/09/08 08:05:40;;;;;;;;;;;20.70;87.70;;;;;;5035347;28;19924;-69
2023/09/08 08:08:06;;;;;;;;;;;20.70;87.70;;;;;;5053035;28;20363;-69
2023/09/08 08:10:32;;;;;;;;;;;20.70;87.70;;;;;;5053156;28;19909;-70
2023/09/08 08:12:57;;;;;;;;;;;20.70;87.70;;;;;;5053175;28;20027;-69
2023/09/08 08:15:34;;;;;;;;;;;20.70;87.70;;;;;;5053053;28;19962;-69
2023/09/08 08:17:59;;;;;;;;;;;20.70;87.70;;;;;;5052898;28;19966;-69
2023/09/08 08:20:24;;;;;;;;;;;20.70;87.70;;;;;;5052520;28;19917;-69
2023/09/08 08:22:50;;;;;;;;;;;20.70;87.70;;;;;;5052997;28;20347;-70
2023/09/08 08:25:15;;;;;;;;;;;20.70;87.70;;;;;;5052575;28;19964;-70
2023/09/08 08:27:41;;;;;;;;;;;20.70;87.70;;;;;;5054661;28;19920;-70
2023/09/08 08:30:07;;;;;;;;;;;20.70;87.70;;;;;;5056616;28;19908;-69
2023/09/08 08:32:33;;;;;;;;;;;20.70;87.70;;;;;;5056536;28;19909;-69
2023/09/08 08:34:58;;;;;;;;;;;20.70;87.70;;;;;;5056427;28;19916;-70
2023/09/08 08:37:24;;;;;;;;;;;20.70;87.70;;;;;;5055925;28;19909;-69
2023/09/08 08:39:49;;;;;;;;;;;20.70;87.70;;;;;;5056294;28;20355;-70
2023/09/08 08:42:15;;;;;;;;;;;20.70;87.70;;;;;;5056162;28;19917;-70
2023/09/08 08:44:40;;;;;;;;;;;20.70;87.70;;;;;;5056177;28;19909;-69
2023/09/08 08:47:06;;;;;;;;;;;20.70;87.70;;;;;;5051309;28;20252;-69
2023/09/08 08:49:32;;;;;;;;;;;20.70;87.70;;;;;;5075765;28;19908;-69
2023/09/08 08:51:58;;;;;;;;;;;20.70;87.70;;;;;;5076091;28;19916;-70
2023/09/08 08:54:24;;;;;;;;;;;20.70;87.70;;;;;;5075359;28;19909;-68
2023/09/08 08:56:49;;;;;;;;;;;20.70;87.70;;;;;;5075501;28;19912;-70
2023/09/08 08:59:15;;;;;;;;;;;20.70;87.70;;;;;;5074381;28;20355;-69
2023/09/08 09:01:41;;;;;;;;;;;20.70;87.70;;;;;;5076045;28;19917;-69
2023/09/08 09:04:07;;;;;;;;;;;20.70;87.70;;;;;;5074698;28;19908;-70
2023/09/08 09:06:33;;;;;;;;;;;20.70;87.70;;;;;;5076210;28;19909;-72
2023/09/08 09:08:59;;;;;;;;;;;20.70;87.70;;;;;;5075922;28;19932;-70
2023/09/08 09:11:25;;;;;;;;;;;20.70;87.70;;;;;;5075716;28;19954;-69
2023/09/08 09:13:50;;;;;;;;;;;20.70;87.70;;;;;;5075431;28;19998;-70
2023/09/08 09:16:16;;;;;;;;;;;20.70;87.70;;;;;;5075418;28;19928;-70
2023/09/08 09:18:53;;;;;;;;;;;20.70;87.70;;;;;;5075003;28;19913;-70
2023/09/08 09:21:18;;;;;;;;;;;20.70;87.70;;;;;;5075339;28;19919;-70
2023/09/08 09:23:44;;;;;;;;;;;20.70;87.70;;;;;;5074220;28;19908;-69
2023/09/08 09:26:11;;;;;;;;;;;20.70;87.70;;;;;;5075197;28;19912;-70
2023/09/08 09:28:46;;;;;;;;;;;20.70;87.80;;;;;;5074984;28;19962;-69
2023/09/08 09:31:11;;;;;;;;;;;20.70;87.70;;;;;;5075082;28;19916;-69
2023/09/08 09:33:37;;;;;;;;;;;20.70;87.70;;;;;;5073866;28;19924;-68
2023/09/08 09:36:03;;;;;;;;;;;20.70;87.70;;;;;;5075262;28;19909;-69
2023/09/08 09:38:29;;;;;;;;;;;20.70;87.80;;;;;;5074321;28;19928;-69
2023/09/08 09:40:55;;;;;;;;;;;20.70;87.80;;;;;;5075228;28;19923;-67
2023/09/08 09:43:22;;;;;;;;;;;20.70;87.80;;;;;;5075243;28;19908;-69
2023/09/08 09:45:48;;;;;;;;;;;20.70;87.80;;;;;;5075098;28;19912;-69
2023/09/08 09:48:13;;;;;;;;;;;20.70;87.80;;;;;;5073344;28;19924;-69
2023/09/08 09:50:40;;;;;;;;;;;20.70;87.80;;;;;;5073858;28;19933;-70
2023/09/08 09:53:10;;;;;;;;;;;20.70;87.80;;;;;;5074708;28;20382;-69
2023/09/08 09:55:36;;;;;;;;;;;20.70;87.80;;;;;;5073780;28;19952;-69
2023/09/08 09:58:03;;;;;;;;;;;20.70;87.80;;;;;;5074540;28;19926;-69
2023/09/08 10:00:29;;;;;;;;;;;20.70;87.80;;;;;;5074634;28;20298;-69
2023/09/08 10:02:55;;;;;;;;;;;20.70;87.80;;;;;;5074548;28;19955;-69
2023/09/08 10:05:21;;;;;;;;;;;20.70;87.90;;;;;;5074385;28;19944;-69
2023/09/08 10:07:50;;;;;;;;;;;20.70;87.90;;;;;;5074312;28;19912;-69
2023/09/08 10:10:15;;;;;;;;;;;20.70;87.90;;;;;;5074655;28;19965;-70
2023/09/08 10:12:44;;;;;;;;;;;20.70;87.90;;;;;;5074785;28;19908;-69
2023/09/08 10:15:10;;;;;;;;;;;20.70;87.90;;;;;;5074080;28;19912;-69
2023/09/08 10:17:36;;;;;;;;;;;20.70;87.90;;;;;;5074297;28;19969;-70
2023/09/08 10:20:08;;;;;;;;;;;20.70;87.90;;;;;;5074079;28;19913;-71
2023/09/08 10:22:35;;;;;;;;;;;20.70;87.90;;;;;;5073117;28;19998;-72
2023/09/08 10:25:03;;;;;;;;;;;20.70;87.90;;;;;;5074201;28;19915;-69
2023/09/08 10:27:29;;;;;;;;;;;20.70;87.90;;;;;;5074117;28;19956;-69
2023/09/08 10:29:55;;;;;;;;;;;20.70;87.90;;;;;;5073986;28;20295;-65
2023/09/08 10:32:20;;;;;;;;;;;20.70;87.90;;;;;;5074208;28;20298;-70
2023/09/08 10:34:47;;;;;;;;;;;20.70;87.90;;;;;;5074377;28;19908;-69
2023/09/08 10:37:24;;;;;;;;;;;20.70;87.90;;;;;;5073924;28;19908;-68
2023/09/08 10:39:49;;;;;;;;;;;20.70;88.00;;;;;;5073703;28;20390;-69
2023/09/08 10:42:21;;;;;;;;;;;20.70;87.90;;;;;;5073934;28;19916;-69
2023/09/08 10:44:52;;;;;;;;;;;20.70;88.00;;;;;;5074031;28;19909;-70
2023/09/08 10:47:19;;;;;;;;;;;20.70;88.00;;;;;;5063452;28;19935;-69
2023/09/08 10:49:45;;;;;;;;;;;20.70;88.00;;;;;;5035298;28;20325;-69
2023/09/08 10:52:12;;;;;;;;;;;20.70;88.00;;;;;;5054186;28;20344;-70
2023/09/08 10:54:40;;;;;;;;;;;20.70;88.00;;;;;;5053787;28;19909;-70
2023/09/08 10:57:06;;;;;;;;;;;20.70;88.00;;;;;;5053723;28;19908;-70
2023/09/08 10:59:35;;;;;;;;;;;20.70;88.00;;;;;;5053098;28;19919;-69
2023/09/08 11:02:03;;;;;;;;;;;20.70;88.00;;;;;;5053640;28;19919;-70
2023/09/08 11:04:29;;;;;;;;;;;20.70;88.00;;;;;;5053460;28;20070;-69
2023/09/08 11:06:56;;;;;;;;;;;20.70;88.10;;;;;;5053841;28;19962;-70
2023/09/08 11:09:23;;;;;;;;;;;20.70;88.00;;;;;;5053221;28;20279;-69
2023/09/08 11:11:49;;;;;;;;;;;20.70;88.10;;;;;;5053327;28;20005;-70
2023/09/08 11:14:15;;;;;;;;;;;20.70;88.00;;;;;;5053493;28;19908;-69
2023/09/08 11:16:40;;;;;;;;;;;20.70;88.10;;;;;;5019204;28;20373;-69
2023/09/08 11:19:06;;;;;;;;;;;20.70;88.10;;;;;;5053445;28;19912;-70
2023/09/08 11:21:34;;;;;;;;;;;20.70;88.10;;;;;;5053535;28;19919;-69
2023/09/08 11:24:01;;;;;;;;;;;20.70;88.10;;;;;;5053439;28;19916;-68
2023/09/08 11:26:27;;;;;;;;;;;20.70;88.10;;;;;;5052995;28;19963;-67
2023/09/08 11:28:54;;;;;;;;;;;20.70;88.10;;;;;;5053447;28;19909;-69
2023/09/08 11:31:19;;;;;;;;;;;20.70;88.10;;;;;;5053476;28;20398;-69
2023/09/08 11:33:48;;;;;;;;;;;20.70;88.10;;;;;;5053460;28;19944;-69
2023/09/08 11:36:14;;;;;;;;;;;20.70;88.10;;;;;;5035468;28;20004;-69
2023/09/08 11:38:41;;;;;;;;;;;20.70;88.20;;;;;;5053263;28;19920;-69
2023/09/08 11:41:06;;;;;;;;;;;20.70;88.10;;;;;;5053507;28;19913;-70
2023/09/08 11:43:34;;;;;;;;;;;20.70;88.10;;;;;;5053063;28;19932;-69
2023/09/08 11:46:00;;;;;;;;;;;20.70;88.10;;;;;;5053117;28;19955;-68
2023/09/08 11:48:26;;;;;;;;;;;20.70;88.10;;;;;;5053259;28;20321;-69
2023/09/08 11:50:54;;;;;;;;;;;20.70;88.20;;;;;;5053231;28;20364;-69
2023/09/08 11:53:23;;;;;;;;;;;20.70;88.20;;;;;;5053282;28;20410;-69
2023/09/08 11:55:49;;;;;;;;;;;20.70;88.20;;;;;;5052890;28;19961;-69
2023/09/08 11:58:14;;;;;;;;;;;20.70;88.20;;;;;;5053179;28;19909;-69
2023/09/08 12:00:40;;;;;;;;;;;20.70;88.20;;;;;;5053210;28;19919;-69
2023/09/08 12:03:10;;;;;;;;;;;20.70;88.20;;;;;;5057348;28;19920;-69
2023/09/08 12:05:35;;;;;;;;;;;20.70;88.20;;;;;;5057115;28;19916;-69
2023/09/08 12:08:04;;;;;;;;;;;20.70;88.20;;;;;;5056852;28;19908;-69
2023/09/08 12:10:30;;;;;;;;;;;20.70;88.20;;;;;;5056487;28;19920;-69
2023/09/08 12:12:59;;;;;;;;;;;20.70;88.30;;;;;;5056736;28;19909;-70
2023/09/08 12:15:38;;;;;;;;;;;20.70;88.20;;;;;;5056873;28;20000;-69
2023/09/08 12:18:07;;;;;;;;;;;20.70;88.20;;;;;;5056436;28;19999;-69
2023/09/08 12:20:33;;;;;;;;;;;20.70;88.20;;;;;;5056558;28;19913;-69
2023/09/08 12:23:00;;;;;;;;;;;20.70;88.20;;;;;;5056744;28;19913;-69
2023/09/08 12:25:27;;;;;;;;;;;20.70;88.30;;;;;;5056157;28;20257;-69
2023/09/08 12:27:53;;;;;;;;;;;20.70;88.20;;;;;;5038740;28;19916;-69
2023/09/08 12:30:20;;;;;;;;;;;20.70;88.20;;;;;;5056397;28;19913;-69
2023/09/08 12:32:47;;;;;;;;;;;20.70;88.30;;;;;;5056218;28;19916;-69
2023/09/08 12:35:13;;;;;;;;;;;20.70;88.30;;;;;;5056335;28;19913;-69
2023/09/08 12:37:38;;;;;;;;;;;20.70;88.30;;;;;;5056022;28;19971;-69
2023/09/08 12:40:04;;;;;;;;;;;20.70;88.30;;;;;;5055873;28;19913;-70
2023/09/08 12:42:30;;;;;;;;;;;20.70;88.30;;;;;;5056046;28;19916;-69
2023/09/08 12:44:55;;;;;;;;;;;20.70;88.30;;;;;;5038459;28;19917;-70
2023/09/08 12:47:21;;;;;;;;;;;20.70;88.30;;;;;;5056058;28;19979;-70
2023/09/08 12:49:46;;;;;;;;;;;20.70;88.30;;;;;;5056409;28;20019;-70
2023/09/08 12:52:12;;;;;;;;;;;20.70;88.30;;;;;;5055841;28;19909;-70
2023/09/08 12:54:37;;;;;;;;;;;20.70;88.30;;;;;;5056077;28;19922;-69
2023/09/08 12:57:03;;;;;;;;;;;20.70;88.30;;;;;;5055916;28;20348;-69
2023/09/08 12:59:28;;;;;;;;;;;20.70;88.30;;;;;;5055942;28;19992;-64
2023/09/08 13:01:54;;;;;;;;;;;20.70;88.40;;;;;;5055939;28;20368;-70
2023/09/08 13:04:20;;;;;;;;;;;20.70;88.40;;;;;;5055829;28;19920;-70
2023/09/08 13:06:45;;;;;;;;;;;20.70;88.40;;;;;;5055647;28;19909;-70
2023/09/08 13:09:11;;;;;;;;;;;20.70;88.40;;;;;;5055774;28;19913;-69
2023/09/08 13:11:36;;;;;;;;;;;20.70;88.40;;;;;;5055451;28;19915;-69
2023/09/08 13:14:02;;;;;;;;;;;20.70;88.40;;;;;;5054899;28;19948;-70
2023/09/08 13:16:27;;;;;;;;;;;20.70;88.40;;;;;;5037576;28;19916;-70
2023/09/08 13:18:53;;;;;;;;;;;20.70;88.50;;;;;;5055467;28;19916;-69
2023/09/08 13:21:18;;;;;;;;;;;20.70;88.40;;;;;;5055257;28;19913;-69
2023/09/08 13:23:44;;;;;;;;;;;20.70;88.40;;;;;;5055146;28;19908;-69
2023/09/08 13:26:09;;;;;;;;;;;20.70;88.40;;;;;;5055363;28;19968;-69
2023/09/08 13:28:34;;;;;;;;;;;20.70;88.40;;;;;;5055137;28;19909;-69
2023/09/08 13:31:00;;;;;;;;;;;20.70;88.40;;;;;;5055062;28;20007;-68
2023/09/08 13:33:26;;;;;;;;;;;20.70;88.40;;;;;;5037354;28;19909;-69
2023/09/08 13:35:52;;;;;;;;;;;20.70;88.40;;;;;;5054745;28;19916;-68
2023/09/08 13:38:18;;;;;;;;;;;20.70;88.40;;;;;;5054866;28;19908;-69
2023/09/08 13:40:43;;;;;;;;;;;20.70;88.50;;;;;;5054734;28;20239;-68
2023/09/08 13:43:09;;;;;;;;;;;20.70;89.00;;;;;;5055130;28;20060;-69
2023/09/08 13:45:35;;;;;;;;;;;20.70;88.50;;;;;;5055230;28;19962;-68
2023/09/08 13:48:01;;;;;;;;;;;20.70;88.50;;;;;;5054576;28;19920;-68
2023/09/08 13:50:27;;;;;;;;;;;20.70;88.50;;;;;;5055075;28;19913;-70
2023/09/08 13:52:52;;;;;;;;;;;20.70;88.50;;;;;;5054878;28;19962;-70
2023/09/08 13:55:23;;;;;;;;;;;20.70;88.50;;;;;;5054742;28;19956;-70
2023/09/08 13:57:49;;;;;;;;;;;20.70;88.50;;;;;;5054467;28;20346;-70
2023/09/08 14:00:15;;;;;;;;;;;20.70;88.50;;;;;;5036920;28;20000;-70
2023/09/08 14:02:41;;;;;;;;;;;20.70;88.50;;;;;;5054786;28;19920;-69
2023/09/08 14:05:07;;;;;;;;;;;20.70;88.50;;;;;;5054438;28;20035;-70
2023/09/08 14:07:32;;;;;;;;;;;20.70;88.50;;;;;;5054458;28;20386;-70
2023/09/08 14:09:58;;;;;;;;;;;20.70;88.50;;;;;;5054992;28;19909;-71